Time;durP1;ratioP1;P1;durP2;ratioP2;P2;SDS_P1;SDS_P2;PMS_P1;PMS_P2;Temp;Humidity;BMP_temperature;BMP_pressure;BME280_temperature;BME280_humidity;BME280_pressure;Samples;Min_cycle;Max_cycle;Signal;HPM_P1;HPM_P2
2021/06/05 00:00:47;;;;;;;88.93;37.92;;;;;;;;;;5055933;28;20487;-84
2021/06/05 00:03:13;;;;;;;87.20;40.53;;;;;;;;;;5054147;28;20029;-85
2021/06/05 00:05:40;;;;;;;90.95;42.60;;;;;;;;;;5054211;28;20036;-84
2021/06/05 00:08:06;;;;;;;90.28;41.33;;;;;;;;;;5087785;28;20012;-84
2021/06/05 00:10:34;;;;;;;89.57;41.83;;;;;;;;;;5054266;28;20376;-84
2021/06/05 00:13:00;;;;;;;74.45;36.17;;;;;;;;;;5054154;28;20017;-84
2021/06/05 00:15:27;;;;;;;91.50;41.40;;;;;;;;;;5054254;28;20077;-84
2021/06/05 00:17:52;;;;;;;93.05;42.13;;;;;;;;;;5054152;28;20051;-84
2021/06/05 00:20:18;;;;;;;94.88;42.38;;;;;;;;;;5054043;28;20033;-84
2021/06/05 00:22:43;;;;;;;98.75;43.28;;;;;;;;;;5053952;28;20037;-84
2021/06/05 00:25:11;;;;;;;102.45;44.53;;;;;;;;;;5053872;28;20021;-84
2021/06/05 00:27:36;;;;;;;102.53;43.75;;;;;;;;;;5054001;28;20021;-84
2021/06/05 00:30:05;;;;;;;99.10;44.63;;;;;;;;;;5053617;28;20040;-84
2021/06/05 00:32:31;;;;;;;82.78;38.88;;;;;;;;;;5053741;28;20017;-84
2021/06/05 00:34:56;;;;;;;81.45;39.63;;;;;;;;;;5053795;28;20833;-84
2021/06/05 00:37:23;;;;;;;93.15;40.97;;;;;;;;;;5054496;28;20040;-84
2021/06/05 00:39:49;;;;;;;79.35;38.15;;;;;;;;;;5053898;28;20025;-84
2021/06/05 00:42:14;;;;;;;89.07;38.70;;;;;;;;;;5054874;28;20025;-84
2021/06/05 00:44:39;;;;;;;89.10;37.78;;;;;;;;;;5053588;28;20439;-84
2021/06/05 00:47:04;;;;;;;127.75;39.22;;;;;;;;;;5053656;28;20048;-84
2021/06/05 00:49:30;;;;;;;117.65;41.25;;;;;;;;;;5053540;28;20119;-85
2021/06/05 00:51:58;;;;;;;98.28;40.22;;;;;;;;;;5087093;28;20032;-84
2021/06/05 00:54:24;;;;;;;125.85;43.65;;;;;;;;;;5053376;28;20021;-84
2021/06/05 00:56:54;;;;;;;191.18;44.58;;;;;;;;;;5053448;28;20027;-84
2021/06/05 00:59:20;;;;;;;301.15;47.17;;;;;;;;;;5054517;28;20073;-85
2021/06/05 01:01:45;;;;;;;290.67;49.35;;;;;;;;;;5053369;28;20111;-84
2021/06/05 01:04:10;;;;;;;300.77;49.17;;;;;;;;;;5054689;28;20029;-85
2021/06/05 01:06:47;;;;;;;290.67;48.70;;;;;;;;;;5054396;28;20486;-84
2021/06/05 01:09:13;;;;;;;373.42;49.92;;;;;;;;;;5086900;28;20037;-84
2021/06/05 01:11:47;;;;;;;271.38;51.83;;;;;;;;;;5086229;28;20017;-84
2021/06/05 01:14:16;;;;;;;486.25;55.92;;;;;;;;;;5085190;28;20017;-84
2021/06/05 01:16:44;;;;;;;488.45;57.00;;;;;;;;;;5052971;28;20028;-84
2021/06/05 01:19:17;;;;;;;576.55;62.13;;;;;;;;;;5053149;28;20020;-84
2021/06/05 01:21:57;;;;;;;450.13;56.63;;;;;;;;;;5053142;28;20066;-84
2021/06/05 01:24:28;;;;;;;474.70;64.88;;;;;;;;;;5040516;28;20025;-84
2021/06/05 01:27:06;;;;;;;476.50;68.75;;;;;;;;;;5054128;28;20036;-84
2021/06/05 01:29:34;;;;;;;285.10;63.38;;;;;;;;;;5054212;28;20032;-84
2021/06/05 01:32:01;;;;;;;260.52;63.20;;;;;;;;;;5054038;28;20023;-84
2021/06/05 01:34:28;;;;;;;216.25;65.95;;;;;;;;;;5073227;28;20036;-84
2021/06/05 01:36:54;;;;;;;183.30;64.00;;;;;;;;;;5052696;28;20383;-84
2021/06/05 01:39:25;;;;;;;170.10;62.05;;;;;;;;;;5053764;28;20083;-84
2021/06/05 01:41:51;;;;;;;174.97;62.83;;;;;;;;;;5051530;28;20451;-84
2021/06/05 01:44:16;;;;;;;194.02;71.00;;;;;;;;;;5072427;28;20024;-84
2021/06/05 01:46:44;;;;;;;174.38;66.18;;;;;;;;;;5073752;28;20024;-84
2021/06/05 01:49:09;;;;;;;143.32;56.00;;;;;;;;;;5072232;28;20020;-84
2021/06/05 01:51:36;;;;;;;181.68;69.50;;;;;;;;;;5072286;28;20013;-84
2021/06/05 01:54:07;;;;;;;206.30;79.13;;;;;;;;;;5068301;28;20108;-84
2021/06/05 01:56:38;;;;;;;179.13;72.95;;;;;;;;;;5066466;28;20039;-84
2021/06/05 01:59:04;;;;;;;184.30;71.10;;;;;;;;;;5047123;28;20024;-84
2021/06/05 02:01:29;;;;;;;179.10;74.22;;;;;;;;;;5072320;28;20017;-84
2021/06/05 02:03:54;;;;;;;154.70;65.00;;;;;;;;;;5071943;28;20463;-84
2021/06/05 02:06:21;;;;;;;206.40;82.68;;;;;;;;;;5071956;28;20021;-84
2021/06/05 02:08:47;;;;;;;196.98;82.13;;;;;;;;;;5069615;28;20449;-84
2021/06/05 02:11:14;;;;;;;209.95;82.47;;;;;;;;;;5060760;28;20036;-84
2021/06/05 02:13:42;;;;;;;199.07;81.30;;;;;;;;;;5073088;28;20016;-84
2021/06/05 02:16:16;;;;;;;203.27;78.05;;;;;;;;;;5071730;28;20009;-84
2021/06/05 02:18:46;;;;;;;218.52;85.25;;;;;;;;;;5071845;28;20025;-84
2021/06/05 02:21:14;;;;;;;189.98;76.22;;;;;;;;;;5071980;28;20012;-84
2021/06/05 02:23:45;;;;;;;230.07;87.85;;;;;;;;;;5069403;28;20024;-84
2021/06/05 02:26:12;;;;;;;234.07;88.45;;;;;;;;;;5057599;28;20071;-84
2021/06/05 02:28:38;;;;;;;234.82;86.95;;;;;;;;;;5071667;28;20069;-84
2021/06/05 02:31:04;;;;;;;289.88;98.07;;;;;;;;;;5071346;28;20105;-84
2021/06/05 02:33:30;;;;;;;258.10;87.57;;;;;;;;;;5072962;28;20027;-84
2021/06/05 02:35:59;;;;;;;298.20;94.32;;;;;;;;;;5071433;28;20021;-84
2021/06/05 02:38:24;;;;;;;274.65;97.60;;;;;;;;;;5072895;28;20066;-84
2021/06/05 02:40:50;;;;;;;284.40;94.15;;;;;;;;;;5071732;28;20021;-84
2021/06/05 02:43:22;;;;;;;280.85;91.93;;;;;;;;;;5072639;28;20036;-84
2021/06/05 02:45:53;;;;;;;282.58;92.05;;;;;;;;;;5072926;28;20052;-84
2021/06/05 02:48:18;;;;;;;264.38;84.88;;;;;;;;;;5072610;28;20008;-84
2021/06/05 02:50:45;;;;;;;280.20;89.18;;;;;;;;;;5071675;28;20020;-84
2021/06/05 02:53:10;;;;;;;285.45;85.38;;;;;;;;;;5071417;28;20017;-85
2021/06/05 02:55:36;;;;;;;311.15;95.70;;;;;;;;;;5062422;28;20491;-84
2021/06/05 02:58:02;;;;;;;305.65;83.20;;;;;;;;;;5072622;28;20032;-84
2021/06/05 03:00:32;;;;;;;304.48;87.75;;;;;;;;;;5071449;28;20035;-84
2021/06/05 03:02:58;;;;;;;303.63;89.88;;;;;;;;;;5071332;28;20025;-84
2021/06/05 03:05:24;;;;;;;286.23;83.85;;;;;;;;;;5071161;28;20028;-84
2021/06/05 03:07:49;;;;;;;292.25;88.43;;;;;;;;;;5060330;28;20029;-84
2021/06/05 03:10:15;;;;;;;289.15;90.45;;;;;;;;;;5056658;28;20108;-84
2021/06/05 03:12:40;;;;;;;270.52;81.97;;;;;;;;;;5071338;28;20031;-83
2021/06/05 03:15:07;;;;;;;254.93;77.85;;;;;;;;;;5067257;28;20025;-84
2021/06/05 03:17:32;;;;;;;241.85;73.95;;;;;;;;;;5071183;28;20025;-84
2021/06/05 03:19:57;;;;;;;256.85;78.13;;;;;;;;;;5071156;28;20021;-84
2021/06/05 03:22:23;;;;;;;252.07;79.85;;;;;;;;;;5071149;28;20028;-84
2021/06/05 03:24:48;;;;;;;242.85;76.00;;;;;;;;;;5069649;28;20036;-84
2021/06/05 03:27:13;;;;;;;225.55;68.88;;;;;;;;;;5071047;28;20028;-84
2021/06/05 03:29:38;;;;;;;261.63;76.75;;;;;;;;;;5071115;28;20020;-84
2021/06/05 03:32:04;;;;;;;244.57;77.20;;;;;;;;;;5071051;28;20376;-84
2021/06/05 03:34:30;;;;;;;239.95;73.43;;;;;;;;;;5074643;28;20047;-84
2021/06/05 03:36:55;;;;;;;232.48;74.50;;;;;;;;;;5075106;28;20021;-84
2021/06/05 03:39:20;;;;;;;220.00;71.75;;;;;;;;;;5074900;28;20020;-84
2021/06/05 03:41:46;;;;;;;225.15;73.07;;;;;;;;;;5075003;28;20028;-84
2021/06/05 03:44:11;;;;;;;228.80;73.85;;;;;;;;;;5076029;28;20028;-83
2021/06/05 03:46:37;;;;;;;234.30;73.18;;;;;;;;;;5074779;28;20048;-84
2021/06/05 03:49:03;;;;;;;234.00;74.93;;;;;;;;;;5076048;28;20042;-84
2021/06/05 03:51:28;;;;;;;219.18;71.85;;;;;;;;;;5074732;28;20016;-84
2021/06/05 03:53:53;;;;;;;233.70;74.57;;;;;;;;;;5068570;28;20100;-84
2021/06/05 03:56:19;;;;;;;232.40;73.03;;;;;;;;;;5068924;28;20017;-84
2021/06/05 03:58:45;;;;;;;233.13;74.75;;;;;;;;;;5074639;28;20559;-84
2021/06/05 04:01:12;;;;;;;231.35;76.60;;;;;;;;;;5074561;28;20471;-84
2021/06/05 04:03:37;;;;;;;202.25;69.43;;;;;;;;;;5074406;28;20590;-84
2021/06/05 04:06:03;;;;;;;200.13;69.63;;;;;;;;;;5072685;28;20112;-84
2021/06/05 04:08:29;;;;;;;171.88;66.40;;;;;;;;;;5074105;28;20209;-84
2021/06/05 04:10:54;;;;;;;167.88;65.68;;;;;;;;;;5067307;28;20088;-84
2021/06/05 04:13:19;;;;;;;166.18;70.70;;;;;;;;;;5068609;28;20040;-83
2021/06/05 04:15:44;;;;;;;149.93;66.05;;;;;;;;;;5074285;28;20435;-84
2021/06/05 04:18:14;;;;;;;156.68;67.15;;;;;;;;;;5074347;28;20353;-84
2021/06/05 04:20:40;;;;;;;149.15;67.85;;;;;;;;;;5069162;28;20025;-84
2021/06/05 04:23:06;;;;;;;147.52;66.18;;;;;;;;;;5062487;28;20463;-84
2021/06/05 04:25:31;;;;;;;145.90;69.45;;;;;;;;;;5070748;28;20039;-84
2021/06/05 04:27:58;;;;;;;147.63;70.53;;;;;;;;;;5074174;28;20017;-84
2021/06/05 04:30:26;;;;;;;148.05;66.90;;;;;;;;;;5075449;28;20111;-84
2021/06/05 04:32:51;;;;;;;146.25;67.40;;;;;;;;;;5075344;28;20360;-84
2021/06/05 04:35:17;;;;;;;154.65;65.90;;;;;;;;;;5074137;28;20031;-84
2021/06/05 04:37:42;;;;;;;131.70;65.18;;;;;;;;;;5075174;28;20034;-84
2021/06/05 04:40:07;;;;;;;130.35;64.20;;;;;;;;;;5073927;28;20030;-83
2021/06/05 04:42:33;;;;;;;131.23;63.08;;;;;;;;;;5070649;28;20024;-84
2021/06/05 04:44:58;;;;;;;120.53;56.28;;;;;;;;;;5063275;28;20052;-83
2021/06/05 04:47:23;;;;;;;127.18;62.85;;;;;;;;;;5074705;28;20025;-83
2021/06/05 04:49:48;;;;;;;127.68;63.15;;;;;;;;;;5074906;28;20016;-84
2021/06/05 04:52:14;;;;;;;125.53;62.05;;;;;;;;;;5073667;28;20349;-84
2021/06/05 04:54:39;;;;;;;125.72;63.88;;;;;;;;;;5072034;28;20028;-84
2021/06/05 04:57:04;;;;;;;113.20;61.17;;;;;;;;;;5059826;28;20023;-84
2021/06/05 04:59:29;;;;;;;115.93;59.35;;;;;;;;;;5073171;28;20027;-84
2021/06/05 05:01:56;;;;;;;116.18;60.60;;;;;;;;;;5073060;28;20008;-83
2021/06/05 05:04:21;;;;;;;122.32;65.47;;;;;;;;;;5073185;28;20012;-83
2021/06/05 05:06:46;;;;;;;124.78;64.13;;;;;;;;;;5074139;28;20020;-83
2021/06/05 05:09:12;;;;;;;116.90;61.60;;;;;;;;;;5073147;28;20013;-83
2021/06/05 05:11:38;;;;;;;118.70;61.88;;;;;;;;;;5072910;28;20016;-82
2021/06/05 05:14:03;;;;;;;109.30;61.40;;;;;;;;;;5073177;28;20119;-83
2021/06/05 05:16:28;;;;;;;113.85;58.92;;;;;;;;;;5073037;28;20020;-83
2021/06/05 05:18:54;;;;;;;104.43;54.63;;;;;;;;;;5072677;28;20062;-83
2021/06/05 05:21:20;;;;;;;111.10;58.75;;;;;;;;;;5072875;28;20055;-83
2021/06/05 05:23:45;;;;;;;112.25;56.78;;;;;;;;;;5067888;28;20025;-83
2021/06/05 05:26:10;;;;;;;111.30;59.70;;;;;;;;;;5061690;28;20493;-82
2021/06/05 05:28:36;;;;;;;114.72;58.28;;;;;;;;;;5072659;28;20142;-82
2021/06/05 05:31:03;;;;;;;109.40;56.53;;;;;;;;;;5072863;28;20017;-83
2021/06/05 05:33:29;;;;;;;114.47;57.35;;;;;;;;;;5068799;28;20017;-82
2021/06/05 05:35:55;;;;;;;106.88;59.45;;;;;;;;;;5070906;28;20020;-83
2021/06/05 05:38:21;;;;;;;106.72;57.30;;;;;;;;;;5072689;28;20391;-82
2021/06/05 05:40:46;;;;;;;107.15;57.67;;;;;;;;;;5072567;28;20021;-83
2021/06/05 05:43:12;;;;;;;102.78;54.60;;;;;;;;;;5072702;28;20426;-83
2021/06/05 05:45:37;;;;;;;100.35;53.35;;;;;;;;;;5066071;28;20021;-82
2021/06/05 05:48:04;;;;;;;95.10;50.67;;;;;;;;;;5070588;28;20016;-83
2021/06/05 05:50:30;;;;;;;109.47;55.47;;;;;;;;;;5064721;28;20016;-83
2021/06/05 05:52:56;;;;;;;105.22;53.42;;;;;;;;;;5072213;28;20029;-82
2021/06/05 05:55:22;;;;;;;99.97;53.92;;;;;;;;;;5072340;28;20020;-83
2021/06/05 05:57:48;;;;;;;105.13;53.70;;;;;;;;;;5072267;28;20452;-82
2021/06/05 06:00:16;;;;;;;100.45;53.28;;;;;;;;;;5059380;28;20486;-82
2021/06/05 06:02:41;;;;;;;105.80;55.60;;;;;;;;;;5072255;28;20105;-82
2021/06/05 06:05:07;;;;;;;95.70;51.80;;;;;;;;;;5057926;28;20472;-83
2021/06/05 06:07:32;;;;;;;96.30;52.28;;;;;;;;;;5071704;28;20134;-82
2021/06/05 06:09:58;;;;;;;102.20;51.33;;;;;;;;;;5054684;28;20039;-82
2021/06/05 06:12:23;;;;;;;100.68;53.70;;;;;;;;;;5071807;28;20103;-82
2021/06/05 06:14:48;;;;;;;93.85;52.20;;;;;;;;;;5071740;28;20020;-83
2021/06/05 06:17:13;;;;;;;98.43;52.67;;;;;;;;;;5071602;28;20483;-83
2021/06/05 06:19:39;;;;;;;96.18;50.95;;;;;;;;;;5071547;28;20024;-83
2021/06/05 06:22:04;;;;;;;100.50;51.70;;;;;;;;;;5071676;28;20441;-83
2021/06/05 06:24:30;;;;;;;108.63;56.03;;;;;;;;;;5073078;28;20023;-83
2021/06/05 06:26:55;;;;;;;94.20;51.70;;;;;;;;;;5071362;28;20028;-83
2021/06/05 06:29:27;;;;;;;104.13;54.10;;;;;;;;;;5071637;28;20371;-83
2021/06/05 06:31:53;;;;;;;96.03;52.80;;;;;;;;;;5054064;28;20426;-83
2021/06/05 06:34:18;;;;;;;99.20;51.88;;;;;;;;;;5070693;28;20012;-82
2021/06/05 06:36:43;;;;;;;100.00;49.75;;;;;;;;;;5068040;28;20017;-83
2021/06/05 06:39:09;;;;;;;95.55;51.65;;;;;;;;;;5066451;28;20027;-82
2021/06/05 06:41:34;;;;;;;98.97;51.13;;;;;;;;;;5071617;28;20024;-83
2021/06/05 06:44:00;;;;;;;97.05;51.72;;;;;;;;;;5071237;28;20506;-83
2021/06/05 06:46:27;;;;;;;102.60;52.10;;;;;;;;;;5071494;28;20033;-83
2021/06/05 06:48:53;;;;;;;104.05;52.55;;;;;;;;;;5066178;28;20024;-83
2021/06/05 06:51:18;;;;;;;86.90;48.70;;;;;;;;;;5070354;28;20020;-83
2021/06/05 06:53:44;;;;;;;102.40;48.33;;;;;;;;;;5071638;28;20341;-82
2021/06/05 06:56:09;;;;;;;96.50;47.45;;;;;;;;;;5071581;28;20028;-83
2021/06/05 06:58:35;;;;;;;92.38;51.15;;;;;;;;;;5071325;28;20017;-83
2021/06/05 07:01:01;;;;;;;92.90;45.42;;;;;;;;;;5071322;28;20407;-82
2021/06/05 07:03:26;;;;;;;90.40;44.47;;;;;;;;;;5069493;28;20150;-82
2021/06/05 07:05:51;;;;;;;94.93;43.55;;;;;;;;;;5059996;28;20527;-83
2021/06/05 07:08:21;;;;;;;97.63;45.80;;;;;;;;;;5071925;28;20103;-82
2021/06/05 07:10:48;;;;;;;96.10;47.53;;;;;;;;;;5071378;28;20120;-83
2021/06/05 07:13:14;;;;;;;98.63;47.22;;;;;;;;;;5072530;28;20021;-83
2021/06/05 07:15:40;;;;;;;97.45;44.65;;;;;;;;;;5071167;28;20031;-83
2021/06/05 07:18:06;;;;;;;102.70;51.28;;;;;;;;;;5071105;28;20021;-83
2021/06/05 07:20:31;;;;;;;93.72;46.50;;;;;;;;;;5071080;28;20044;-82
2021/06/05 07:22:56;;;;;;;107.82;49.80;;;;;;;;;;5071514;28;20028;-82
2021/06/05 07:25:24;;;;;;;112.15;50.63;;;;;;;;;;5057570;28;20027;-83
2021/06/05 07:27:50;;;;;;;105.03;50.45;;;;;;;;;;5071199;28;20445;-83
2021/06/05 07:30:15;;;;;;;118.78;52.97;;;;;;;;;;5066783;28;20037;-82
2021/06/05 07:32:41;;;;;;;118.38;52.70;;;;;;;;;;5070635;28;20033;-83
2021/06/05 07:35:07;;;;;;;114.30;53.90;;;;;;;;;;5070841;28;20082;-88
2021/06/05 07:37:32;;;;;;;111.75;53.83;;;;;;;;;;5069262;28;20020;-82
2021/06/05 07:39:58;;;;;;;116.88;52.42;;;;;;;;;;5065235;28;20039;-81
2021/06/05 07:42:23;;;;;;;125.80;55.83;;;;;;;;;;5066432;28;20391;-81
2021/06/05 07:44:49;;;;;;;110.75;51.88;;;;;;;;;;5055889;28;20032;-81
2021/06/05 07:47:14;;;;;;;113.68;53.85;;;;;;;;;;5053388;28;20028;-83
2021/06/05 07:49:39;;;;;;;109.85;50.33;;;;;;;;;;5051581;28;20361;-82
2021/06/05 07:52:06;;;;;;;115.30;50.78;;;;;;;;;;5061518;28;20048;-83
2021/06/05 07:54:32;;;;;;;116.47;51.85;;;;;;;;;;5056374;28;20021;-84
2021/06/05 07:56:57;;;;;;;101.43;48.75;;;;;;;;;;5064095;28;20392;-82
2021/06/05 07:59:25;;;;;;;113.47;52.30;;;;;;;;;;5058297;28;20120;-83
2021/06/05 08:01:51;;;;;;;103.90;52.28;;;;;;;;;;5057929;28;20078;-83
2021/06/05 08:04:17;;;;;;;110.32;53.25;;;;;;;;;;5055054;28;20041;-84
2021/06/05 08:06:43;;;;;;;104.53;48.75;;;;;;;;;;5066820;28;20460;-84
2021/06/05 08:09:08;;;;;;;98.25;47.97;;;;;;;;;;5064822;28;20027;-83
2021/06/05 08:11:34;;;;;;;103.95;48.97;;;;;;;;;;5064145;28;20020;-83
2021/06/05 08:13:59;;;;;;;104.15;47.75;;;;;;;;;;5070372;28;20047;-83
2021/06/05 08:16:25;;;;;;;97.40;46.50;;;;;;;;;;5063828;28;20031;-83
2021/06/05 08:18:50;;;;;;;93.38;44.83;;;;;;;;;;5053057;28;20017;-84
2021/06/05 08:21:16;;;;;;;101.50;48.70;;;;;;;;;;5051935;28;20021;-84
2021/06/05 08:23:42;;;;;;;97.15;44.65;;;;;;;;;;5070640;28;20020;-83
2021/06/05 08:26:09;;;;;;;102.13;48.33;;;;;;;;;;5059228;28;20048;-83
2021/06/05 08:28:36;;;;;;;99.40;47.03;;;;;;;;;;5054433;28;20021;-83
2021/06/05 08:31:03;;;;;;;111.45;50.25;;;;;;;;;;5047075;28;20488;-83
2021/06/05 08:33:29;;;;;;;115.47;48.45;;;;;;;;;;5074918;28;20028;-83
2021/06/05 08:35:54;;;;;;;113.05;46.13;;;;;;;;;;5059379;28;20016;-83
2021/06/05 08:38:22;;;;;;;116.88;51.60;;;;;;;;;;5063209;28;20025;-82
2021/06/05 08:40:49;;;;;;;120.38;51.17;;;;;;;;;;5057006;28;20044;-83
2021/06/05 08:43:19;;;;;;;135.07;54.63;;;;;;;;;;5073597;28;20378;-83
2021/06/05 08:45:44;;;;;;;119.65;50.97;;;;;;;;;;5073093;28;20028;-83
2021/06/05 08:48:13;;;;;;;134.82;54.45;;;;;;;;;;5069819;28;20020;-84
2021/06/05 08:50:38;;;;;;;121.07;52.05;;;;;;;;;;5060317;28;20021;-83
2021/06/05 08:53:10;;;;;;;130.00;51.33;;;;;;;;;;5050076;28;20116;-83
2021/06/05 08:55:39;;;;;;;130.90;50.58;;;;;;;;;;5052850;28;20020;-84
2021/06/05 08:58:28;;;;;;;127.32;51.40;;;;;;;;;;5052443;28;20468;-84
2021/06/05 09:00:55;;;;;;;134.65;51.90;;;;;;;;;;5051075;28;20425;-84
2021/06/05 09:03:21;;;;;;;125.75;52.67;;;;;;;;;;5052310;28;20484;-83
2021/06/05 09:06:00;;;;;;;135.98;53.85;;;;;;;;;;5053111;28;20464;-84
2021/06/05 09:08:26;;;;;;;133.88;53.08;;;;;;;;;;5050928;28;20021;-84
2021/06/05 09:10:56;;;;;;;120.43;47.78;;;;;;;;;;5084565;28;20028;-84
2021/06/05 09:13:21;;;;;;;132.43;56.05;;;;;;;;;;5052258;28;20013;-84
2021/06/05 09:15:47;;;;;;;133.63;57.13;;;;;;;;;;5086051;28;20082;-84
2021/06/05 09:18:12;;;;;;;149.27;58.90;;;;;;;;;;5080324;28;20032;-84
2021/06/05 09:20:42;;;;;;;142.65;59.67;;;;;;;;;;5051751;28;20032;-83
2021/06/05 09:23:25;;;;;;;157.88;66.38;;;;;;;;;;5053294;28;20029;-83
2021/06/05 09:25:51;;;;;;;151.93;61.47;;;;;;;;;;5052106;28;20021;-83
2021/06/05 09:28:18;;;;;;;157.63;68.15;;;;;;;;;;5085694;28;20043;-84
2021/06/05 09:30:44;;;;;;;161.63;66.25;;;;;;;;;;5050643;28;20032;-83
2021/06/05 09:33:11;;;;;;;159.93;66.07;;;;;;;;;;5084176;28;20465;-83
2021/06/05 09:35:42;;;;;;;164.18;71.00;;;;;;;;;;5085744;28;20036;-84
2021/06/05 09:38:17;;;;;;;148.60;68.50;;;;;;;;;;5085629;28;20119;-84
2021/06/05 09:40:55;;;;;;;160.23;67.60;;;;;;;;;;5082975;28;20389;-84
2021/06/05 09:43:22;;;;;;;160.07;67.70;;;;;;;;;;5080926;28;20069;-84
2021/06/05 09:46:03;;;;;;;147.48;68.97;;;;;;;;;;5051481;28;20100;-84
2021/06/05 09:48:35;;;;;;;150.82;69.60;;;;;;;;;;5053496;28;20021;-83
2021/06/05 09:51:02;;;;;;;148.73;64.90;;;;;;;;;;5097281;28;20055;-84
2021/06/05 09:53:33;;;;;;;144.80;67.95;;;;;;;;;;5064463;28;20031;-84
2021/06/05 09:56:03;;;;;;;144.07;64.47;;;;;;;;;;5065562;28;20030;-83
2021/06/05 09:58:39;;;;;;;140.35;64.95;;;;;;;;;;5071493;28;20462;-83
2021/06/05 10:01:31;;;;;;;132.85;62.97;;;;;;;;;;5060493;28;20140;-83
2021/06/05 10:04:08;;;;;;;122.45;61.55;;;;;;;;;;5056540;28;20063;-83
2021/06/05 10:06:33;;;;;;;121.53;62.05;;;;;;;;;;5064928;28;20029;-83
2021/06/05 10:09:00;;;;;;;125.78;62.88;;;;;;;;;;5063205;28;20603;-83
2021/06/05 10:11:31;;;;;;;120.40;61.83;;;;;;;;;;5051969;28;20013;-82
2021/06/05 10:13:58;;;;;;;113.78;60.35;;;;;;;;;;5059606;28;20094;-83
2021/06/05 10:16:24;;;;;;;108.78;60.72;;;;;;;;;;5063175;28;20096;-83
2021/06/05 10:19:01;;;;;;;115.07;59.78;;;;;;;;;;5071398;28;20013;-83
2021/06/05 10:21:43;;;;;;;111.10;62.42;;;;;;;;;;5063462;28;20479;-83
2021/06/05 10:24:30;;;;;;;110.97;56.30;;;;;;;;;;5060846;28;20017;-83
2021/06/05 10:26:59;;;;;;;103.05;53.83;;;;;;;;;;5065107;28;20038;-83
2021/06/05 10:29:28;;;;;;;108.85;56.75;;;;;;;;;;5058690;28;20154;-83
2021/06/05 10:31:55;;;;;;;101.38;54.17;;;;;;;;;;5071135;28;20016;-83
2021/06/05 10:34:26;;;;;;;92.93;47.60;;;;;;;;;;5051088;28;20483;-83
2021/06/05 10:36:52;;;;;;;99.45;51.10;;;;;;;;;;5051256;28;20021;-83
2021/06/05 10:39:29;;;;;;;85.28;46.40;;;;;;;;;;5068803;28;20111;-84
2021/06/05 10:41:56;;;;;;;90.60;49.55;;;;;;;;;;5070864;28;20517;-83
2021/06/05 10:44:23;;;;;;;93.53;47.63;;;;;;;;;;5055345;28;20476;-83
2021/06/05 10:47:03;;;;;;;90.70;47.65;;;;;;;;;;5050657;28;20021;-83
2021/06/05 10:49:37;;;;;;;84.65;44.60;;;;;;;;;;5068577;28;20016;-83
2021/06/05 10:52:08;;;;;;;84.68;45.90;;;;;;;;;;5052382;28;20016;-83
2021/06/05 10:54:36;;;;;;;78.35;42.90;;;;;;;;;;5071089;28;20029;-83
2021/06/05 10:57:28;;;;;;;83.50;45.97;;;;;;;;;;5063046;28;20501;-83
2021/06/05 10:59:54;;;;;;;75.10;42.58;;;;;;;;;;5062527;28;20024;-83
2021/06/05 11:02:34;;;;;;;79.00;43.17;;;;;;;;;;5064827;28;20027;-83
2021/06/05 11:05:00;;;;;;;76.43;42.38;;;;;;;;;;5060134;28;20021;-83
2021/06/05 11:07:30;;;;;;;72.80;42.50;;;;;;;;;;5065380;28;20016;-83
2021/06/05 11:09:57;;;;;;;74.25;42.33;;;;;;;;;;5056806;28;20100;-83
2021/06/05 11:12:23;;;;;;;75.50;43.85;;;;;;;;;;5051570;28;20032;-83
2021/06/05 11:14:49;;;;;;;76.38;45.85;;;;;;;;;;5052229;28;20025;-83
2021/06/05 11:17:32;;;;;;;72.63;43.55;;;;;;;;;;5062537;28;20078;-83
2021/06/05 11:19:57;;;;;;;;;;;;;;;;;;5062243;28;20043;-83
2021/06/05 11:22:24;;;;;;;81.72;43.67;;;;;;;;;;5069269;28;19908;-83
2021/06/05 11:25:07;;;;;;;72.63;42.38;;;;;;;;;;5059553;28;20025;-83
2021/06/05 11:27:52;;;;;;;76.68;44.60;;;;;;;;;;5065842;28;20029;-82
2021/06/05 11:30:21;;;;;;;81.88;44.47;;;;;;;;;;5064630;28;20115;-82
2021/06/05 11:33:09;;;;;;;83.80;48.15;;;;;;;;;;5065091;28;20163;-83
2021/06/05 11:35:42;;;;;;;73.40;42.90;;;;;;;;;;5061875;28;20020;-83
2021/06/05 11:38:12;;;;;;;75.60;43.13;;;;;;;;;;5068372;28;20508;-83
2021/06/05 11:41:01;;;;;;;74.07;44.72;;;;;;;;;;5067050;28;20384;-84
2021/06/05 11:43:29;;;;;;;76.88;43.35;;;;;;;;;;5053448;28;20033;-83
2021/06/05 11:46:01;;;;;;;84.38;47.60;;;;;;;;;;5062997;28;20031;-83
2021/06/05 11:48:41;;;;;;;88.53;50.47;;;;;;;;;;5064331;28;20016;-83
2021/06/05 11:51:21;;;;;;;95.07;51.67;;;;;;;;;;5069362;28;20501;-83
2021/06/05 11:53:48;;;;;;;88.00;45.15;;;;;;;;;;5038277;28;20013;-83
2021/06/05 11:56:14;;;;;;;105.70;55.90;;;;;;;;;;5069006;28;20123;-83
2021/06/05 11:58:39;;;;;;;92.15;51.50;;;;;;;;;;5068157;28;20056;-83
2021/06/05 12:01:08;;;;;;;91.70;51.25;;;;;;;;;;5068963;28;20052;-83
2021/06/05 12:03:42;;;;;;;85.85;46.95;;;;;;;;;;5058315;28;20027;-83
2021/06/05 12:06:09;;;;;;;88.65;43.95;;;;;;;;;;5062790;28;20025;-82
2021/06/05 12:08:34;;;;;;;74.28;39.03;;;;;;;;;;5052854;28;20029;-83
2021/06/05 12:11:00;;;;;;;82.97;45.03;;;;;;;;;;5055666;28;20025;-84
2021/06/05 12:13:37;;;;;;;86.05;44.65;;;;;;;;;;5059515;28;20107;-83
2021/06/05 12:16:07;;;;;;;85.30;48.67;;;;;;;;;;5074293;28;20028;-83
2021/06/05 12:18:33;;;;;;;68.80;38.53;;;;;;;;;;5072779;28;20480;-83
2021/06/05 12:21:18;;;;;;;83.45;45.65;;;;;;;;;;5061544;28;20028;-83
2021/06/05 12:23:43;;;;;;;75.93;43.60;;;;;;;;;;5061918;28;20407;-83
2021/06/05 12:26:10;;;;;;;75.38;45.15;;;;;;;;;;5063286;28;20024;-84
2021/06/05 12:28:40;;;;;;;73.20;43.65;;;;;;;;;;5058904;28;20457;-82
2021/06/05 12:31:11;;;;;;;76.85;41.88;;;;;;;;;;5067245;28;20024;-83
2021/06/05 12:33:37;;;;;;;74.65;42.70;;;;;;;;;;5063198;28;20021;-83
2021/06/05 12:36:20;;;;;;;70.82;41.75;;;;;;;;;;5073062;28;20033;-83
2021/06/05 12:38:50;;;;;;;65.05;34.60;;;;;;;;;;5055563;28;20361;-84
2021/06/05 12:41:23;;;;;;;75.72;42.80;;;;;;;;;;5057407;28;20020;-83
2021/06/05 12:43:49;;;;;;;75.38;41.53;;;;;;;;;;5054988;28;20101;-83
2021/06/05 12:46:24;;;;;;;68.32;39.28;;;;;;;;;;5054117;28;20380;-83
2021/06/05 12:48:51;;;;;;;81.60;47.05;;;;;;;;;;5066531;28;20487;-83
2021/06/05 12:51:20;;;;;;;78.43;44.60;;;;;;;;;;5067839;28;20035;-83
2021/06/05 12:53:55;;;;;;;78.53;46.05;;;;;;;;;;5057258;28;20020;-83
2021/06/05 12:56:31;;;;;;;68.60;39.35;;;;;;;;;;5066935;28;20024;-83
2021/06/05 12:58:58;;;;;;;72.72;39.72;;;;;;;;;;5073177;28;20067;-83
2021/06/05 13:01:26;;;;;;;74.95;42.42;;;;;;;;;;5068530;28;20024;-83
2021/06/05 13:03:51;;;;;;;71.68;41.95;;;;;;;;;;5073287;28;20024;-83
2021/06/05 13:06:27;;;;;;;70.60;44.33;;;;;;;;;;5072203;28;20417;-83
2021/06/05 13:09:12;;;;;;;65.78;41.95;;;;;;;;;;5073084;28;20012;-83
2021/06/05 13:11:39;;;;;;;71.88;44.50;;;;;;;;;;5072417;28;20024;-84
2021/06/05 13:14:13;;;;;;;69.72;41.97;;;;;;;;;;5056138;28;20074;-84
2021/06/05 13:16:39;;;;;;;53.65;33.45;;;;;;;;;;5066671;28;20021;-84
2021/06/05 13:19:16;;;;;;;67.07;38.80;;;;;;;;;;5074005;28;20379;-83
2021/06/05 13:21:41;;;;;;;51.53;30.15;;;;;;;;;;5072629;28;20472;-83
2021/06/05 13:24:09;;;;;;;59.70;38.28;;;;;;;;;;5073699;28;20016;-83
2021/06/05 13:26:34;;;;;;;63.03;36.75;;;;;;;;;;5072436;28;20024;-83
2021/06/05 13:29:18;;;;;;;57.78;36.50;;;;;;;;;;5072655;28;20035;-83
2021/06/05 13:31:46;;;;;;;59.22;36.95;;;;;;;;;;5072762;28;20028;-83
2021/06/05 13:34:25;;;;;;;61.38;39.88;;;;;;;;;;5072391;28;20456;-83
2021/06/05 13:37:07;;;;;;;67.95;38.08;;;;;;;;;;5068993;28;20378;-84
2021/06/05 13:39:32;;;;;;;60.25;37.03;;;;;;;;;;5072640;28;20430;-84
2021/06/05 13:41:58;;;;;;;62.28;39.50;;;;;;;;;;5072350;28;20230;-84
2021/06/05 13:44:23;;;;;;;56.08;32.55;;;;;;;;;;5072004;28;20055;-83
2021/06/05 13:46:48;;;;;;;54.13;33.72;;;;;;;;;;5070213;28;20517;-83
2021/06/05 13:49:13;;;;;;;58.53;36.45;;;;;;;;;;5073457;28;20469;-83
2021/06/05 13:51:38;;;;;;;53.95;31.73;;;;;;;;;;5071861;28;20017;-83
2021/06/05 13:54:04;;;;;;;63.17;36.67;;;;;;;;;;5072259;28;20784;-83
2021/06/05 13:56:29;;;;;;;54.58;34.95;;;;;;;;;;5071936;28;20017;-83
2021/06/05 13:58:55;;;;;;;52.33;32.53;;;;;;;;;;5072352;28;20020;-83
2021/06/05 14:01:25;;;;;;;61.28;36.78;;;;;;;;;;5072081;28;20024;-83
2021/06/05 14:03:50;;;;;;;55.25;31.73;;;;;;;;;;5054503;28;20063;-84
2021/06/05 14:06:15;;;;;;;53.55;30.85;;;;;;;;;;5073540;28;20985;-84
2021/06/05 14:08:41;;;;;;;42.85;25.85;;;;;;;;;;5071829;28;20022;-84
2021/06/05 14:11:07;;;;;;;48.80;30.08;;;;;;;;;;5068353;28;20029;-84
2021/06/05 14:13:32;;;;;;;50.63;29.42;;;;;;;;;;5067136;28;20025;-84